Star City, AR (71667)

1:20 AM CST on December 06, 2016 (GMT -0600)
Grider | | Change Station

Elev 207 ft 34.17 °N, 91.93 °W | Updated 27 minutes ago

Light Rain
Light Rain
45 °F
Feels Like 40 °F
N
9
Wind Variable Wind from North

Today
High -- | Low -- °F
--% Chance of Precip.
Yesterday
High -- | Low -- °F
Precip. -- in
Pressure 29.66 in
Visibility 10.0 miles
Clouds Mostly Cloudy 500 ft
Overcast 4300 ft
Windchill 40 °F
Dew Point 44 °F
Humidity 97%
Rainfall 0.15 in
Snow Depth Not available.
6:59 AM 4:58 PM
Waxing Crescent, 39% visible
METAR KPBF 060653Z AUTO 36008KT 10SM -RA BKN005 OVC043 07/07 A2966 RMK AO2 LTG DSNT NE SLP042 P0015 T00720067
Pressure 29.66 in
Visibility 10.0 miles
Clouds Mostly Cloudy 500 ft
Overcast 4300 ft
Windchill 40 °F
Dew Point 44 °F
Humidity 97%
Rainfall 0.15 in
Snow Depth Not available.
6:59 AM 4:58 PM
Waxing Crescent, 39% visible
METAR KPBF 060653Z AUTO 36008KT 10SM -RA BKN005 OVC043 07/07 A2966 RMK AO2 LTG DSNT NE SLP042 P0015 T00720067

10-Day Weather Forecast

Almanac

Astronomy

Dec. 06, 2016 Rise Set
Actual Time
Civil Twilight
Nautical Twilight
Astronomical Twilight
Moon
Length of Visible Light
Length of Day
Tomorrow will be .
, % of the Moon is Illuminated

Today's Extremes

State Highs State Lows

Community

WunderPhotos

Upload Photos

1,955,930 photos uploaded!

WunderBlog® & News

Nearby

Air Quality

  Air Quality AQ Index Pollutant
Not available.

Snow Depth

Station Depth Elevation

Earthquake Activity

City Distance Mag. Time & Date
Minimum magnitude displayed is 2.5.

Coastal Water Temperatures

Place Temperature

Stations

Nearby Weather Stations

Station Location Temp. Windchill Dew Point Humidity Wind Precip. Elev Updated Type
                   

Watches & Warnings

There are currently no watches in effect.